Time;durP1;ratioP1;P1;durP2;ratioP2;P2;SDS_P1;SDS_P2;PMS_P1;PMS_P2;Temp;Humidity;BMP_temperature;BMP_pressure;BME280_temperature;BME280_humidity;BME280_pressure;Samples;Min_cycle;Max_cycle;Signal;HPM_P1;HPM_P2
2022/08/18 00:00:04;;;;;;;;;;;21.90;43.10;;;;;;482230;247;2219;-51
2022/08/18 00:02:05;;;;;;;;;;;21.90;43.10;;;;;;482505;246;1242;-52
2022/08/18 00:04:06;;;;;;;;;;;21.90;43.00;;;;;;482210;247;1305;-52
2022/08/18 00:06:08;;;;;;;;;;;21.90;43.10;;;;;;482505;246;1290;-52
2022/08/18 00:08:09;;;;;;;;;;;21.90;43.00;;;;;;482153;247;1333;-52
2022/08/18 00:10:10;;;;;;;;;;;21.90;43.10;;;;;;482049;247;1184;-51
2022/08/18 00:12:12;;;;;;;;;;;21.90;43.10;;;;;;482033;247;1227;-52
2022/08/18 00:14:13;;;;;;;;;;;21.90;43.10;;;;;;482111;247;1226;-51
2022/08/18 00:16:14;;;;;;;;;;;21.90;43.10;;;;;;481972;247;1239;-51
2022/08/18 00:18:16;;;;;;;;;;;21.90;43.00;;;;;;482268;247;2165;-51
2022/08/18 00:20:17;;;;;;;;;;;21.90;43.00;;;;;;482106;247;1207;-52
2022/08/18 00:22:18;;;;;;;;;;;22.00;43.10;;;;;;482107;247;1264;-52
2022/08/18 00:24:19;;;;;;;;;;;21.90;43.00;;;;;;482329;247;1171;-51
2022/08/18 00:26:21;;;;;;;;;;;21.90;43.00;;;;;;482103;247;1205;-52
2022/08/18 00:28:22;;;;;;;;;;;21.90;43.00;;;;;;482312;247;1305;-51
2022/08/18 00:30:23;;;;;;;;;;;21.90;43.00;;;;;;482132;247;1234;-51
2022/08/18 00:32:25;;;;;;;;;;;21.90;43.00;;;;;;481985;247;1185;-51
2022/08/18 00:34:26;;;;;;;;;;;22.00;43.00;;;;;;482016;247;1256;-52
2022/08/18 00:36:28;;;;;;;;;;;22.00;43.00;;;;;;482078;247;1215;-52
2022/08/18 00:38:29;;;;;;;;;;;21.90;42.90;;;;;;482449;247;2169;-51
2022/08/18 00:40:30;;;;;;;;;;;22.00;43.00;;;;;;482029;247;1222;-52
2022/08/18 00:42:32;;;;;;;;;;;21.90;43.00;;;;;;482022;247;1172;-51
2022/08/18 00:44:33;;;;;;;;;;;22.00;43.00;;;;;;482054;247;1186;-52
2022/08/18 00:46:34;;;;;;;;;;;21.90;42.90;;;;;;482556;247;1086;-52
2022/08/18 00:48:37;;;;;;;;;;;21.90;43.00;;;;;;482545;247;1210;-51
2022/08/18 00:50:37;;;;;;;;;;;21.90;43.00;;;;;;482297;247;2280;-52
2022/08/18 00:52:39;;;;;;;;;;;21.90;43.00;;;;;;482215;247;1390;-51
2022/08/18 00:54:41;;;;;;;;;;;21.90;43.00;;;;;;481836;247;1199;-52
2022/08/18 00:56:42;;;;;;;;;;;21.90;43.00;;;;;;482096;247;1206;-52
2022/08/18 00:58:43;;;;;;;;;;;22.00;42.90;;;;;;482223;247;2152;-51
2022/08/18 01:00:44;;;;;;;;;;;22.00;42.90;;;;;;482283;247;1195;-51
2022/08/18 01:02:46;;;;;;;;;;;21.90;42.90;;;;;;482471;247;1172;-52
2022/08/18 01:04:47;;;;;;;;;;;22.00;43.00;;;;;;481806;247;1245;-51
2022/08/18 01:06:48;;;;;;;;;;;21.90;42.90;;;;;;482060;247;1282;-52
2022/08/18 01:08:50;;;;;;;;;;;21.90;42.90;;;;;;482307;247;1253;-51
2022/08/18 01:10:51;;;;;;;;;;;21.90;42.90;;;;;;482136;247;1190;-51
2022/08/18 01:12:52;;;;;;;;;;;21.90;42.90;;;;;;482095;247;1194;-52
2022/08/18 01:14:54;;;;;;;;;;;22.00;43.00;;;;;;482168;247;1203;-51
2022/08/18 01:21:52;;;;;;;;;;;21.90;43.10;;;;;;481829;247;1291;-51
2022/08/18 01:23:53;;;;;;;;;;;21.90;43.20;;;;;;482066;247;1309;-52
2022/08/18 01:26:03;;;;;;;;;;;22.00;43.20;;;;;;482506;246;1197;-51
2022/08/18 01:28:05;;;;;;;;;;;21.90;43.10;;;;;;482014;247;1216;-51
2022/08/18 01:30:09;;;;;;;;;;;21.90;43.10;;;;;;482034;247;1272;-52
2022/08/18 01:32:08;;;;;;;;;;;21.90;43.10;;;;;;482413;246;1585;-52
2022/08/18 01:34:09;;;;;;;;;;;21.90;43.10;;;;;;482175;246;1192;-52
2022/08/18 01:36:13;;;;;;;;;;;21.90;43.10;;;;;;482305;247;1211;-52
2022/08/18 01:38:13;;;;;;;;;;;21.90;43.10;;;;;;482349;247;1515;-52
2022/08/18 01:40:14;;;;;;;;;;;21.90;43.10;;;;;;482060;247;2188;-52
2022/08/18 01:42:16;;;;;;;;;;;21.90;43.10;;;;;;482403;246;1088;-51
2022/08/18 01:44:17;;;;;;;;;;;21.90;43.00;;;;;;482428;246;1224;-51
2022/08/18 01:46:19;;;;;;;;;;;21.90;43.00;;;;;;482189;247;1359;-51
2022/08/18 01:48:20;;;;;;;;;;;22.00;43.00;;;;;;482083;247;1320;-52
2022/08/18 01:50:22;;;;;;;;;;;21.90;43.00;;;;;;482338;247;1221;-51
2022/08/18 01:52:23;;;;;;;;;;;21.90;43.00;;;;;;482403;247;1179;-52
2022/08/18 01:54:29;;;;;;;;;;;21.90;43.00;;;;;;482281;247;1207;-51
2022/08/18 01:56:26;;;;;;;;;;;21.90;43.00;;;;;;482081;247;2116;-51
2022/08/18 01:58:28;;;;;;;;;;;22.00;43.00;;;;;;482053;247;1182;-52
2022/08/18 02:00:31;;;;;;;;;;;22.00;43.00;;;;;;482094;247;2189;-51
2022/08/18 02:02:31;;;;;;;;;;;21.90;42.90;;;;;;482049;247;1965;-52
2022/08/18 02:04:32;;;;;;;;;;;22.00;43.00;;;;;;482381;247;1780;-52
2022/08/18 02:06:34;;;;;;;;;;;21.90;43.00;;;;;;482496;247;1193;-52
2022/08/18 02:08:35;;;;;;;;;;;22.00;43.00;;;;;;482134;247;1161;-52
2022/08/18 02:10:36;;;;;;;;;;;21.90;42.90;;;;;;482414;247;1119;-52
2022/08/18 02:12:37;;;;;;;;;;;21.90;42.90;;;;;;482135;247;1231;-51
2022/08/18 02:14:39;;;;;;;;;;;21.90;42.90;;;;;;481538;247;1228;-51
2022/08/18 02:16:40;;;;;;;;;;;22.00;43.00;;;;;;482069;247;1283;-51
2022/08/18 02:18:42;;;;;;;;;;;21.90;42.90;;;;;;482217;247;2196;-52
2022/08/18 02:20:43;;;;;;;;;;;21.90;42.90;;;;;;482629;247;1058;-52
2022/08/18 02:22:44;;;;;;;;;;;21.90;42.90;;;;;;482477;247;1104;-51
2022/08/18 02:24:45;;;;;;;;;;;22.00;42.90;;;;;;482147;247;1207;-51
2022/08/18 02:26:47;;;;;;;;;;;21.90;42.80;;;;;;482164;247;1288;-52
2022/08/18 02:28:48;;;;;;;;;;;22.00;42.90;;;;;;482547;247;1046;-51
2022/08/18 02:30:49;;;;;;;;;;;21.90;42.80;;;;;;482187;247;1222;-51
2022/08/18 02:32:51;;;;;;;;;;;21.90;42.80;;;;;;482439;247;1109;-52
2022/08/18 02:34:52;;;;;;;;;;;22.00;42.90;;;;;;482337;247;1177;-52
2022/08/18 02:36:53;;;;;;;;;;;21.90;42.80;;;;;;482225;247;1146;-51
2022/08/18 02:38:55;;;;;;;;;;;22.00;42.90;;;;;;481917;247;2150;-51
2022/08/18 02:40:56;;;;;;;;;;;22.00;42.90;;;;;;481350;247;1248;-52
2022/08/18 02:42:57;;;;;;;;;;;22.00;42.80;;;;;;482024;247;1210;-51
2022/08/18 02:44:59;;;;;;;;;;;21.90;42.80;;;;;;482034;247;1200;-51
2022/08/18 02:47:00;;;;;;;;;;;22.00;42.80;;;;;;482081;247;1191;-51
2022/08/18 02:49:01;;;;;;;;;;;22.00;42.80;;;;;;482189;247;1349;-52
2022/08/18 02:51:03;;;;;;;;;;;22.00;42.90;;;;;;482049;247;1214;-52
2022/08/18 02:53:04;;;;;;;;;;;21.90;42.90;;;;;;482048;247;1239;-51
2022/08/18 02:55:06;;;;;;;;;;;21.90;42.80;;;;;;482160;247;1257;-52
2022/08/18 02:57:07;;;;;;;;;;;21.90;42.80;;;;;;482530;247;1215;-52
2022/08/18 02:59:08;;;;;;;;;;;22.00;42.90;;;;;;482079;247;2189;-52
2022/08/18 03:01:10;;;;;;;;;;;22.00;42.80;;;;;;482108;247;1305;-52
2022/08/18 03:03:12;;;;;;;;;;;22.00;42.80;;;;;;482080;247;1237;-52
2022/08/18 03:05:12;;;;;;;;;;;22.00;42.80;;;;;;482094;247;1657;-52
2022/08/18 03:07:14;;;;;;;;;;;22.00;42.80;;;;;;482085;247;1205;-51
2022/08/18 03:09:15;;;;;;;;;;;22.00;42.80;;;;;;482298;247;1272;-51
2022/08/18 03:11:17;;;;;;;;;;;22.00;43.00;;;;;;482148;247;1194;-51
2022/08/18 03:13:18;;;;;;;;;;;21.90;43.00;;;;;;482058;247;1200;-52
2022/08/18 03:15:19;;;;;;;;;;;21.90;43.10;;;;;;482070;247;1247;-52
2022/08/18 03:17:21;;;;;;;;;;;22.00;43.10;;;;;;482048;247;1195;-51
2022/08/18 03:19:22;;;;;;;;;;;21.90;43.10;;;;;;482157;247;2169;-52
2022/08/18 03:21:23;;;;;;;;;;;21.90;43.00;;;;;;482085;247;1309;-52
2022/08/18 03:23:24;;;;;;;;;;;21.90;43.00;;;;;;482214;247;1171;-52
2022/08/18 03:25:26;;;;;;;;;;;21.90;43.10;;;;;;482094;247;1270;-52
2022/08/18 03:27:27;;;;;;;;;;;21.90;43.10;;;;;;482521;247;1290;-51
2022/08/18 03:29:28;;;;;;;;;;;21.90;43.00;;;;;;482558;247;1102;-52
2022/08/18 03:31:30;;;;;;;;;;;21.90;43.00;;;;;;481462;247;1176;-51
2022/08/18 03:33:32;;;;;;;;;;;21.90;43.00;;;;;;482076;247;1245;-51
2022/08/18 03:35:33;;;;;;;;;;;21.90;43.00;;;;;;482142;247;1176;-51
2022/08/18 03:37:35;;;;;;;;;;;21.90;43.00;;;;;;482257;247;1372;-51
2022/08/18 03:39:36;;;;;;;;;;;21.90;43.00;;;;;;482167;246;2158;-52
2022/08/18 03:41:38;;;;;;;;;;;21.90;42.90;;;;;;482119;247;1174;-51
2022/08/18 03:43:39;;;;;;;;;;;21.90;42.90;;;;;;482392;247;1195;-51
2022/08/18 03:45:40;;;;;;;;;;;21.90;43.00;;;;;;482411;247;1361;-51
2022/08/18 03:47:44;;;;;;;;;;;21.90;43.00;;;;;;482140;247;1224;-52
2022/08/18 03:49:44;;;;;;;;;;;21.90;43.00;;;;;;482170;247;2232;-52
2022/08/18 03:51:45;;;;;;;;;;;21.90;43.00;;;;;;482042;247;2203;-50
2022/08/18 03:53:47;;;;;;;;;;;21.90;42.90;;;;;;482043;247;2112;-51
2022/08/18 03:55:47;;;;;;;;;;;21.90;42.90;;;;;;481985;247;1944;-51
2022/08/18 03:57:51;;;;;;;;;;;21.90;42.90;;;;;;482442;247;1171;-52
2022/08/18 03:59:49;;;;;;;;;;;21.90;42.90;;;;;;481977;247;2200;-52
2022/08/18 04:01:51;;;;;;;;;;;21.90;42.90;;;;;;482106;247;1172;-52
2022/08/18 04:03:52;;;;;;;;;;;21.90;42.90;;;;;;482238;247;1189;-51
2022/08/18 04:05:53;;;;;;;;;;;21.90;42.90;;;;;;482467;247;1249;-52
2022/08/18 04:07:55;;;;;;;;;;;21.90;42.90;;;;;;482043;247;1121;-52
2022/08/18 04:09:56;;;;;;;;;;;21.90;42.90;;;;;;482031;247;2438;-51
2022/08/18 04:11:57;;;;;;;;;;;21.90;42.90;;;;;;482344;247;1201;-51
2022/08/18 04:13:59;;;;;;;;;;;21.90;43.00;;;;;;482327;247;1344;-51
2022/08/18 04:16:00;;;;;;;;;;;21.90;42.90;;;;;;482185;247;1234;-51
2022/08/18 04:18:03;;;;;;;;;;;21.90;42.90;;;;;;481960;247;1373;-51
2022/08/18 04:20:03;;;;;;;;;;;22.00;43.00;;;;;;481947;247;2191;-51
2022/08/18 04:22:05;;;;;;;;;;;21.90;42.90;;;;;;482342;247;1209;-52
2022/08/18 04:24:06;;;;;;;;;;;21.90;42.90;;;;;;482046;247;1119;-52
2022/08/18 04:26:08;;;;;;;;;;;22.00;42.90;;;;;;482074;247;1180;-51
2022/08/18 04:28:09;;;;;;;;;;;21.90;42.90;;;;;;482259;247;1275;-51
2022/08/18 04:30:10;;;;;;;;;;;21.90;42.90;;;;;;482023;247;1086;-52
2022/08/18 04:32:12;;;;;;;;;;;21.90;42.90;;;;;;482071;247;1547;-51
2022/08/18 04:34:13;;;;;;;;;;;22.00;42.90;;;;;;482407;247;1183;-51
2022/08/18 04:36:15;;;;;;;;;;;22.00;42.90;;;;;;482032;247;1221;-52
2022/08/18 04:38:16;;;;;;;;;;;22.00;42.90;;;;;;482071;247;2387;-51
2022/08/18 04:40:17;;;;;;;;;;;22.00;42.90;;;;;;482032;247;2156;-51
2022/08/18 04:42:19;;;;;;;;;;;22.00;42.80;;;;;;482354;247;1234;-51
2022/08/18 04:44:20;;;;;;;;;;;22.00;42.90;;;;;;482043;247;1518;-51
2022/08/18 04:46:21;;;;;;;;;;;22.00;42.80;;;;;;482123;247;1287;-51
2022/08/18 04:48:23;;;;;;;;;;;22.00;42.80;;;;;;481988;247;1175;-51
2022/08/18 04:50:24;;;;;;;;;;;22.00;42.90;;;;;;481986;247;1209;-51
2022/08/18 04:54:44;;;;;;;;;;;22.00;42.80;;;;;;481596;247;1372;-51
2022/08/18 04:56:46;;;;;;;;;;;21.90;42.80;;;;;;482181;247;1289;-52
2022/08/18 04:58:50;;;;;;;;;;;22.00;43.00;;;;;;481139;246;1182;-52
2022/08/18 05:56:45;;;;;;;;;;;21.80;44.40;;;;;;482248;247;2152;-52
2022/08/18 05:58:30;;;;;;;;;;;21.90;44.50;;;;;;482235;247;2152;-52
2022/08/18 06:00:46;;;;;;;;;;;21.80;44.50;;;;;;482128;247;2194;-52
2022/08/18 06:03:05;;;;;;;;;;;21.80;44.60;;;;;;482270;247;2135;-51
2022/08/18 06:05:25;;;;;;;;;;;21.80;44.60;;;;;;482055;247;2231;-52
2022/08/18 06:07:45;;;;;;;;;;;21.80;44.80;;;;;;481716;247;2148;-52
2022/08/18 06:10:04;;;;;;;;;;;21.90;44.80;;;;;;482274;247;2155;-52
2022/08/18 06:12:22;;;;;;;;;;;21.90;44.70;;;;;;482030;247;1485;-52
2022/08/18 06:14:42;;;;;;;;;;;21.90;44.60;;;;;;482131;247;2160;-52
2022/08/18 06:17:02;;;;;;;;;;;21.90;44.50;;;;;;482327;247;1227;-52
2022/08/18 06:19:21;;;;;;;;;;;21.90;44.60;;;;;;482725;247;1186;-52
2022/08/18 06:21:40;;;;;;;;;;;21.90;44.50;;;;;;482559;247;2122;-52
2022/08/18 06:24:00;;;;;;;;;;;21.90;44.50;;;;;;482501;247;1252;-52
2022/08/18 06:26:20;;;;;;;;;;;21.90;44.40;;;;;;482174;247;2347;-52
2022/08/18 06:28:40;;;;;;;;;;;21.90;44.50;;;;;;482640;247;1190;-52
2022/08/18 06:30:59;;;;;;;;;;;21.90;44.50;;;;;;482658;247;1298;-52
2022/08/18 06:33:19;;;;;;;;;;;21.90;44.60;;;;;;482458;247;1241;-52
2022/08/18 06:35:38;;;;;;;;;;;21.90;44.50;;;;;;482199;247;2207;-52
2022/08/18 06:40:35;;;;;;;;;;;21.90;44.50;;;;;;472129;248;2361;-51
2022/08/18 06:42:54;;;;;;;;;;;22.00;44.60;;;;;;481263;247;2248;-53
2022/08/18 06:45:17;;;;;;;;;;;22.00;44.50;;;;;;482075;247;1343;-51
2022/08/18 06:47:33;;;;;;;;;;;22.00;44.60;;;;;;482144;247;2101;-51
2022/08/18 06:49:53;;;;;;;;;;;22.00;44.60;;;;;;482166;247;1245;-52
2022/08/18 06:52:13;;;;;;;;;;;21.90;44.60;;;;;;482184;247;2136;-52
2022/08/18 06:54:32;;;;;;;;;;;21.90;44.50;;;;;;481890;247;1219;-51
2022/08/18 06:56:51;;;;;;;;;;;22.00;44.70;;;;;;476720;247;1265;-52
2022/08/18 06:59:11;;;;;;;;;;;22.00;44.60;;;;;;482388;247;1193;-51
2022/08/18 07:01:30;;;;;;;;;;;22.00;44.70;;;;;;481958;247;2376;-51
2022/08/18 07:03:50;;;;;;;;;;;22.00;44.70;;;;;;482144;247;2149;-52
2022/08/18 07:06:10;;;;;;;;;;;22.00;44.60;;;;;;482124;247;2351;-51
2022/08/18 07:08:29;;;;;;;;;;;22.00;44.70;;;;;;481972;247;2151;-51
2022/08/18 07:10:48;;;;;;;;;;;21.90;44.60;;;;;;482141;247;2283;-51
2022/08/18 07:13:08;;;;;;;;;;;22.00;44.70;;;;;;482063;247;2347;-52
2022/08/18 07:15:27;;;;;;;;;;;22.00;44.70;;;;;;482344;247;1204;-52
2022/08/18 07:17:47;;;;;;;;;;;21.90;44.70;;;;;;482032;247;2137;-51
2022/08/18 07:20:07;;;;;;;;;;;22.00;44.80;;;;;;482220;247;2141;-52
2022/08/18 07:22:25;;;;;;;;;;;22.00;44.80;;;;;;482182;247;2428;-51
2022/08/18 07:24:45;;;;;;;;;;;22.00;44.90;;;;;;481976;247;1234;-52
2022/08/18 07:27:04;;;;;;;;;;;22.00;44.90;;;;;;482183;247;1538;-51
2022/08/18 07:29:23;;;;;;;;;;;22.00;44.80;;;;;;482019;247;2156;-52
2022/08/18 07:31:45;;;;;;;;;;;21.90;44.80;;;;;;482058;247;2170;-51
2022/08/18 07:34:03;;;;;;;;;;;22.00;44.80;;;;;;482146;247;2199;-51
2022/08/18 07:36:23;;;;;;;;;;;22.00;44.80;;;;;;482160;247;2312;-52
2022/08/18 07:38:42;;;;;;;;;;;22.00;44.90;;;;;;482104;247;2328;-52
2022/08/18 07:41:02;;;;;;;;;;;22.00;44.90;;;;;;481945;247;2140;-52
2022/08/18 07:43:21;;;;;;;;;;;22.00;44.90;;;;;;481865;247;2299;-52
2022/08/18 07:45:41;;;;;;;;;;;22.00;45.00;;;;;;482148;247;1158;-52
2022/08/18 07:48:00;;;;;;;;;;;22.00;44.90;;;;;;482123;247;2147;-51
2022/08/18 07:50:19;;;;;;;;;;;22.00;44.90;;;;;;482120;247;1183;-52
2022/08/18 07:52:40;;;;;;;;;;;22.00;45.00;;;;;;482067;247;2318;-52
2022/08/18 07:54:58;;;;;;;;;;;22.00;44.90;;;;;;482321;247;1123;-51
2022/08/18 07:57:18;;;;;;;;;;;22.00;45.00;;;;;;481975;247;2307;-52
2022/08/18 07:59:37;;;;;;;;;;;22.00;45.00;;;;;;482088;247;2174;-52
2022/08/18 08:01:56;;;;;;;;;;;22.00;45.00;;;;;;482302;247;2145;-51
2022/08/18 08:04:16;;;;;;;;;;;22.00;45.00;;;;;;482124;247;1224;-51
2022/08/18 08:06:36;;;;;;;;;;;22.00;45.00;;;;;;482088;247;1255;-52
2022/08/18 08:08:55;;;;;;;;;;;22.00;45.10;;;;;;481966;247;2131;-51
2022/08/18 08:11:15;;;;;;;;;;;21.90;45.10;;;;;;482191;247;1231;-52
2022/08/18 08:13:36;;;;;;;;;;;22.00;45.00;;;;;;482517;247;1211;-52
2022/08/18 08:15:56;;;;;;;;;;;22.00;45.10;;;;;;482136;247;1307;-51
2022/08/18 08:18:14;;;;;;;;;;;22.00;45.20;;;;;;482066;247;1248;-52
2022/08/18 08:20:33;;;;;;;;;;;22.00;45.20;;;;;;482189;247;2157;-51
2022/08/18 08:22:52;;;;;;;;;;;21.90;45.10;;;;;;482097;247;1588;-51
2022/08/18 08:25:12;;;;;;;;;;;22.00;45.30;;;;;;482017;247;2153;-51
2022/08/18 08:27:31;;;;;;;;;;;22.00;45.40;;;;;;482105;247;2414;-51
2022/08/18 08:29:51;;;;;;;;;;;22.00;45.50;;;;;;482122;247;2165;-52
2022/08/18 08:32:10;;;;;;;;;;;22.00;45.50;;;;;;481994;247;2296;-52
2022/08/18 08:34:30;;;;;;;;;;;22.00;45.50;;;;;;482107;247;2155;-52
2022/08/18 08:36:49;;;;;;;;;;;22.00;45.60;;;;;;482085;247;1236;-52
2022/08/18 08:39:08;;;;;;;;;;;22.00;45.50;;;;;;482345;247;1225;-51
2022/08/18 08:41:28;;;;;;;;;;;22.00;45.60;;;;;;481633;247;2166;-52
2022/08/18 08:43:48;;;;;;;;;;;22.00;45.50;;;;;;482044;247;2385;-52
2022/08/18 08:46:07;;;;;;;;;;;22.00;45.50;;;;;;481929;247;2128;-52
2022/08/18 08:48:27;;;;;;;;;;;22.00;45.50;;;;;;482099;247;2163;-51
2022/08/18 08:50:46;;;;;;;;;;;22.00;45.40;;;;;;482025;247;1263;-51
2022/08/18 08:53:05;;;;;;;;;;;22.00;45.50;;;;;;482062;247;2374;-51
2022/08/18 08:55:25;;;;;;;;;;;22.00;45.50;;;;;;481943;247;2130;-52
2022/08/18 08:57:44;;;;;;;;;;;22.00;45.50;;;;;;482212;247;1225;-51
2022/08/18 09:00:04;;;;;;;;;;;22.00;45.50;;;;;;478980;247;1243;-51
2022/08/18 09:02:23;;;;;;;;;;;22.00;45.40;;;;;;482030;247;1253;-52
2022/08/18 09:04:43;;;;;;;;;;;22.00;45.40;;;;;;482301;247;1191;-52
2022/08/18 09:07:04;;;;;;;;;;;22.00;45.40;;;;;;482018;247;2193;-52
2022/08/18 09:09:21;;;;;;;;;;;22.00;45.50;;;;;;482036;247;2369;-51
2022/08/18 09:11:41;;;;;;;;;;;22.00;45.40;;;;;;481966;247;2174;-51
2022/08/18 09:14:01;;;;;;;;;;;22.00;45.40;;;;;;482018;247;2120;-51
2022/08/18 09:16:21;;;;;;;;;;;22.00;45.50;;;;;;482269;247;1179;-52
2022/08/18 09:18:42;;;;;;;;;;;22.00;45.50;;;;;;482039;247;2139;-51
2022/08/18 09:21:00;;;;;;;;;;;22.00;45.50;;;;;;482048;247;2243;-52
2022/08/18 09:23:20;;;;;;;;;;;22.00;45.50;;;;;;482034;247;2240;-52
2022/08/18 09:25:40;;;;;;;;;;;22.00;45.40;;;;;;482061;247;2257;-52
2022/08/18 09:27:59;;;;;;;;;;;22.00;45.40;;;;;;482121;247;2095;-51
2022/08/18 09:30:19;;;;;;;;;;;22.00;45.50;;;;;;481986;247;2104;-51
2022/08/18 09:32:39;;;;;;;;;;;22.00;45.50;;;;;;482111;247;2135;-51
2022/08/18 09:34:58;;;;;;;;;;;22.00;45.50;;;;;;482022;247;2357;-52
2022/08/18 09:37:00;;;;;;;;;;;22.00;45.50;;;;;;482126;247;1298;-52
2022/08/18 09:41:32;;;;;;;;;;;22.00;45.50;;;;;;472014;247;2175;-51
2022/08/18 09:43:34;;;;;;;;;;;22.00;45.50;;;;;;478148;248;1398;-52
2022/08/18 09:45:35;;;;;;;;;;;22.00;45.50;;;;;;481419;248;1252;-51
2022/08/18 09:47:37;;;;;;;;;;;22.00;45.50;;;;;;481246;248;1350;-51
2022/08/18 09:49:38;;;;;;;;;;;22.00;45.50;;;;;;481866;247;1210;-51
2022/08/18 09:51:39;;;;;;;;;;;22.00;45.60;;;;;;482011;247;2116;-52
2022/08/18 09:53:40;;;;;;;;;;;22.00;45.60;;;;;;482273;247;1175;-51
2022/08/18 09:55:42;;;;;;;;;;;22.00;45.60;;;;;;482048;247;1250;-52
2022/08/18 09:57:44;;;;;;;;;;;22.00;45.50;;;;;;481992;247;1371;-52
2022/08/18 09:59:46;;;;;;;;;;;22.00;45.50;;;;;;482252;247;1239;-52
2022/08/18 10:01:46;;;;;;;;;;;22.00;45.60;;;;;;481919;247;2208;-52
2022/08/18 10:03:47;;;;;;;;;;;22.00;45.50;;;;;;482242;247;1231;-52
2022/08/18 10:05:49;;;;;;;;;;;22.00;45.50;;;;;;481974;247;1226;-51
2022/08/18 10:07:52;;;;;;;;;;;22.00;45.60;;;;;;481978;247;1200;-51
2022/08/18 10:09:51;;;;;;;;;;;22.00;45.50;;;;;;482050;247;2012;-52
2022/08/18 10:11:53;;;;;;;;;;;22.00;45.50;;;;;;482045;246;1193;-51
2022/08/18 10:13:54;;;;;;;;;;;22.00;45.60;;;;;;482181;247;1265;-51
2022/08/18 10:15:55;;;;;;;;;;;22.00;45.50;;;;;;482109;247;1233;-51
2022/08/18 10:17:57;;;;;;;;;;;22.00;45.60;;;;;;481977;247;1183;-52
2022/08/18 10:19:59;;;;;;;;;;;22.00;45.50;;;;;;482062;247;1245;-51
2022/08/18 10:22:00;;;;;;;;;;;22.00;45.50;;;;;;482291;247;2166;-51
2022/08/18 10:24:01;;;;;;;;;;;22.00;45.60;;;;;;481980;247;1911;-52
2022/08/18 10:26:02;;;;;;;;;;;22.00;45.50;;;;;;482126;247;1190;-52
2022/08/18 10:28:04;;;;;;;;;;;22.00;45.50;;;;;;482154;246;1233;-51
2022/08/18 10:30:05;;;;;;;;;;;22.00;45.50;;;;;;482541;247;1583;-52
2022/08/18 10:32:07;;;;;;;;;;;22.00;45.50;;;;;;482087;247;1225;-52
2022/08/18 10:34:08;;;;;;;;;;;22.00;45.50;;;;;;482004;247;2586;-52
2022/08/18 10:36:09;;;;;;;;;;;22.00;45.60;;;;;;482451;246;2125;-52
2022/08/18 10:38:10;;;;;;;;;;;22.00;45.60;;;;;;482274;246;1310;-51
2022/08/18 10:40:12;;;;;;;;;;;22.00;45.50;;;;;;482053;247;1311;-52
2022/08/18 10:42:13;;;;;;;;;;;22.00;45.60;;;;;;482039;247;2217;-52
2022/08/18 10:44:14;;;;;;;;;;;22.00;45.60;;;;;;482022;247;1242;-51
2022/08/18 10:46:15;;;;;;;;;;;22.00;45.60;;;;;;482107;246;1239;-51
2022/08/18 10:48:17;;;;;;;;;;;22.00;45.60;;;;;;482098;247;1180;-51
2022/08/18 10:50:18;;;;;;;;;;;22.00;45.60;;;;;;482252;246;1157;-52
2022/08/18 10:52:20;;;;;;;;;;;22.00;45.50;;;;;;481981;247;1238;-52
2022/08/18 10:54:21;;;;;;;;;;;22.00;45.60;;;;;;482249;247;1112;-52
2022/08/18 10:56:22;;;;;;;;;;;22.00;45.50;;;;;;482207;247;1178;-52
2022/08/18 10:58:24;;;;;;;;;;;22.00;45.60;;;;;;482126;246;1194;-52
2022/08/18 11:00:25;;;;;;;;;;;22.00;45.60;;;;;;482062;247;1234;-52
2022/08/18 11:02:26;;;;;;;;;;;22.00;45.70;;;;;;482075;247;2177;-52
2022/08/18 11:04:28;;;;;;;;;;;22.00;45.70;;;;;;482280;247;1306;-51
2022/08/18 11:06:29;;;;;;;;;;;22.00;45.60;;;;;;482119;246;1335;-52
2022/08/18 11:08:30;;;;;;;;;;;22.00;45.60;;;;;;482376;247;1398;-52
2022/08/18 11:10:32;;;;;;;;;;;22.00;45.80;;;;;;481935;247;1204;-51
2022/08/18 11:12:33;;;;;;;;;;;22.00;45.90;;;;;;482029;247;1396;-51
2022/08/18 11:14:34;;;;;;;;;;;22.00;45.90;;;;;;482112;247;1262;-51
2022/08/18 11:16:36;;;;;;;;;;;22.00;45.80;;;;;;482031;247;1229;-52
2022/08/18 11:18:37;;;;;;;;;;;22.00;45.80;;;;;;482060;247;1382;-52
2022/08/18 11:20:39;;;;;;;;;;;22.00;45.70;;;;;;481983;247;1279;-52
2022/08/18 11:22:40;;;;;;;;;;;22.00;45.80;;;;;;482047;247;2192;-52
2022/08/18 11:24:41;;;;;;;;;;;22.00;45.70;;;;;;481993;247;1280;-51
2022/08/18 11:26:42;;;;;;;;;;;22.00;45.70;;;;;;482400;246;1208;-51
2022/08/18 11:28:44;;;;;;;;;;;22.00;45.70;;;;;;482012;247;1545;-52
2022/08/18 11:30:51;;;;;;;;;;;22.00;45.00;;;;;;502734;233;1189;-53
2022/08/18 11:32:52;;;;;;;;;;;22.10;45.80;;;;;;490855;241;1348;-50
2022/08/18 11:34:54;;;;;;;;;;;22.10;45.80;;;;;;490045;242;1254;-50
2022/08/18 11:36:56;;;;;;;;;;;22.10;45.80;;;;;;489845;242;1331;-50
2022/08/18 11:38:56;;;;;;;;;;;22.00;45.70;;;;;;489951;242;2048;-50
2022/08/18 11:40:57;;;;;;;;;;;22.00;45.80;;;;;;489630;242;1175;-50
2022/08/18 11:43:00;;;;;;;;;;;22.00;45.80;;;;;;489724;242;1222;-50
2022/08/18 11:45:00;;;;;;;;;;;22.00;45.80;;;;;;489648;242;1925;-51
2022/08/18 11:47:01;;;;;;;;;;;22.00;45.70;;;;;;489730;242;1233;-51
2022/08/18 11:49:03;;;;;;;;;;;22.00;45.70;;;;;;489772;242;2193;-51
2022/08/18 11:51:04;;;;;;;;;;;22.00;45.70;;;;;;490179;242;1316;-50
2022/08/18 11:53:05;;;;;;;;;;;22.10;45.70;;;;;;489810;242;1246;-51
2022/08/18 11:55:07;;;;;;;;;;;22.00;45.70;;;;;;489906;242;1274;-51
2022/08/18 11:57:10;;;;;;;;;;;22.00;45.70;;;;;;489650;242;1275;-50
2022/08/18 11:59:12;;;;;;;;;;;22.00;45.70;;;;;;489887;242;1253;-51
2022/08/18 12:01:13;;;;;;;;;;;22.00;45.70;;;;;;489771;242;1215;-50
2022/08/18 12:03:15;;;;;;;;;;;22.00;45.70;;;;;;489694;242;1313;-51
2022/08/18 12:05:16;;;;;;;;;;;22.00;45.70;;;;;;490096;242;1226;-51
2022/08/18 12:07:18;;;;;;;;;;;22.00;45.70;;;;;;489722;242;1485;-50
2022/08/18 12:09:19;;;;;;;;;;;22.00;45.70;;;;;;489621;242;2169;-51
2022/08/18 12:11:20;;;;;;;;;;;22.00;45.70;;;;;;489688;242;1185;-51
2022/08/18 12:13:21;;;;;;;;;;;22.00;45.80;;;;;;489746;242;1223;-51
2022/08/18 12:15:23;;;;;;;;;;;22.00;45.70;;;;;;489689;242;1235;-50
2022/08/18 12:17:24;;;;;;;;;;;22.00;45.70;;;;;;489685;242;1214;-51
2022/08/18 12:19:26;;;;;;;;;;;22.00;45.60;;;;;;489659;242;1169;-51
2022/08/18 12:21:28;;;;;;;;;;;22.00;45.60;;;;;;489580;242;1261;-51
2022/08/18 12:23:30;;;;;;;;;;;22.00;45.60;;;;;;489589;242;1209;-51
2022/08/18 12:25:30;;;;;;;;;;;22.00;45.60;;;;;;489606;242;1342;-50
2022/08/18 12:27:32;;;;;;;;;;;22.00;45.60;;;;;;490059;242;1069;-51
2022/08/18 12:29:33;;;;;;;;;;;22.00;45.60;;;;;;489570;242;2193;-50
2022/08/18 12:31:35;;;;;;;;;;;22.00;45.60;;;;;;489718;242;1120;-51
2022/08/18 12:33:36;;;;;;;;;;;22.00;45.70;;;;;;489735;242;1215;-51
2022/08/18 12:35:37;;;;;;;;;;;22.00;45.80;;;;;;489863;242;1192;-50
2022/08/18 12:37:38;;;;;;;;;;;22.00;45.70;;;;;;489820;242;1258;-51
2022/08/18 12:39:40;;;;;;;;;;;22.00;45.60;;;;;;489876;242;1072;-51
2022/08/18 12:41:41;;;;;;;;;;;22.00;45.70;;;;;;489813;242;1164;-50
2022/08/18 12:43:42;;;;;;;;;;;22.00;45.70;;;;;;489521;242;1190;-51
2022/08/18 12:45:45;;;;;;;;;;;22.00;45.70;;;;;;489448;242;1226;-51
2022/08/18 12:47:45;;;;;;;;;;;22.00;45.70;;;;;;489647;242;1541;-50
2022/08/18 12:49:47;;;;;;;;;;;22.00;45.70;;;;;;489531;242;2193;-50
2022/08/18 12:51:48;;;;;;;;;;;22.00;45.70;;;;;;489510;242;1309;-51
2022/08/18 12:53:49;;;;;;;;;;;22.00;45.70;;;;;;489442;242;1204;-50
2022/08/18 12:55:50;;;;;;;;;;;22.00;45.70;;;;;;489378;242;1299;-50
2022/08/18 12:57:52;;;;;;;;;;;22.00;45.70;;;;;;489556;242;1233;-51
2022/08/18 12:59:53;;;;;;;;;;;22.00;45.70;;;;;;489606;242;1389;-50
2022/08/18 13:01:55;;;;;;;;;;;22.00;45.80;;;;;;489494;242;1257;-50
2022/08/18 13:03:56;;;;;;;;;;;22.10;45.60;;;;;;489573;242;1311;-51
2022/08/18 13:05:57;;;;;;;;;;;22.00;45.60;;;;;;489459;242;1184;-51
2022/08/18 13:07:59;;;;;;;;;;;22.00;45.60;;;;;;489464;242;1201;-51
2022/08/18 13:10:00;;;;;;;;;;;22.00;45.60;;;;;;489506;242;2153;-51
2022/08/18 13:12:01;;;;;;;;;;;22.00;45.70;;;;;;489641;242;1216;-51
2022/08/18 13:14:03;;;;;;;;;;;22.10;45.60;;;;;;489553;242;1190;-50
2022/08/18 13:16:04;;;;;;;;;;;22.10;45.70;;;;;;489648;242;1377;-50
2022/08/18 13:18:06;;;;;;;;;;;22.10;45.60;;;;;;489790;242;1213;-50
2022/08/18 13:20:08;;;;;;;;;;;22.10;45.70;;;;;;489571;242;1189;-51
2022/08/18 13:22:10;;;;;;;;;;;22.10;45.70;;;;;;489512;242;2499;-50
2022/08/18 13:24:10;;;;;;;;;;;22.10;45.70;;;;;;489490;242;2072;-50
2022/08/18 13:26:11;;;;;;;;;;;22.00;45.60;;;;;;489519;242;1250;-51
2022/08/18 13:28:13;;;;;;;;;;;22.10;45.70;;;;;;489905;242;1258;-50
2022/08/18 13:30:14;;;;;;;;;;;22.10;45.70;;;;;;489946;242;2166;-51
2022/08/18 13:32:17;;;;;;;;;;;22.00;45.70;;;;;;489547;242;1762;-50